Time;durP1;ratioP1;P1;durP2;ratioP2;P2;SDS_P1;SDS_P2;PMS_P1;PMS_P2;Temp;Humidity;BMP_temperature;BMP_pressure;BME280_temperature;BME280_humidity;BME280_pressure;Samples;Min_cycle;Max_cycle;Signal;HPM_P1;HPM_P2
2020/12/25 00:00:26;;;;;;;1.92;1.80;;;;;;;2.76;100.00;101136.13;4403523;32;20337;-67
2020/12/25 00:03:01;;;;;;;1.70;1.70;;;;;;;3.17;100.00;101200.88;4423470;32;20123;-67
2020/12/25 00:05:27;;;;;;;1.70;1.70;;;;;;;3.19;100.00;101203.34;4407648;32;20092;-69
2020/12/25 00:07:53;;;;;;;1.55;1.55;;;;;;;3.24;100.00;101222.25;4388987;32;20069;-67
2020/12/25 00:10:22;;;;;;;1.62;1.62;;;;;;;3.01;100.00;101175.06;4391791;32;20056;-68
2020/12/25 00:12:47;;;;;;;1.75;1.73;;;;;;;3.28;100.00;101206.94;4386745;32;20084;-68
2020/12/25 00:15:14;;;;;;;2.30;2.20;;;;;;;2.90;100.00;101148.84;4393457;32;20103;-67
2020/12/25 00:17:40;;;;;;;1.80;1.80;;;;;;;2.95;100.00;101172.19;4382650;32;20122;-67
2020/12/25 00:20:05;;;;;;;1.80;1.80;;;;;;;3.35;100.00;101210.66;4387001;32;20061;-67
2020/12/25 00:22:31;;;;;;;1.80;1.80;;;;;;;3.34;100.00;101212.44;4390330;32;20099;-67
2020/12/25 00:24:56;;;;;;;1.73;1.73;;;;;;;2.76;100.00;101125.56;4394409;32;20065;-67
2020/12/25 00:27:28;;;;;;;2.08;1.98;;;;;;;3.37;100.00;101217.44;4387214;32;20072;-68
2020/12/25 00:29:53;;;;;;;1.60;1.60;;;;;;;3.37;100.00;101212.16;4404987;32;20069;-68
2020/12/25 00:32:19;;;;;;;1.65;1.65;;;;;;;3.14;100.00;101177.38;4407546;32;20330;-68
2020/12/25 00:34:45;;;;;;;1.80;1.80;;;;;;;2.70;100.00;101118.22;4388327;32;20935;-67
2020/12/25 00:37:10;;;;;;;1.80;1.80;;;;;;;3.37;100.00;101220.09;4394813;32;20139;-67
2020/12/25 00:39:39;;;;;;;2.00;1.90;;;;;;;3.27;100.00;101226.41;4388596;32;20111;-66
2020/12/25 00:42:04;;;;;;;2.12;2.03;;;;;;;3.36;100.00;101234.31;4386911;32;20104;-69
2020/12/25 00:44:33;;;;;;;2.35;2.25;;;;;;;3.27;100.00;101206.09;4388088;32;20138;-68
2020/12/25 00:47:01;;;;;;;2.00;1.90;;;;;;;3.36;100.00;101226.37;4412808;32;20079;-66
2020/12/25 00:49:27;;;;;;;1.70;1.70;;;;;;;3.37;100.00;101233.31;4401271;32;20080;-66
2020/12/25 00:51:55;;;;;;;1.80;1.80;;;;;;;3.36;100.00;101234.31;4403991;32;20077;-67
2020/12/25 00:54:30;;;;;;;1.75;1.75;;;;;;;2.42;100.00;101083.91;4395806;32;20444;-67
2020/12/25 00:57:01;;;;;;;2.22;2.12;;;;;;;2.50;100.00;101094.56;4401490;32;20138;-69
2020/12/25 00:59:32;;;;;;;1.95;1.85;;;;;;;2.97;100.00;101186.09;4396368;32;20087;-69
2020/12/25 01:02:04;;;;;;;1.70;1.70;;;;;;;3.05;100.00;101236.38;4388473;32;20085;-66
2020/12/25 01:04:35;;;;;;;1.80;1.80;;;;;;;2.45;100.00;101133.78;4405428;32;20203;-67
2020/12/25 01:07:05;;;;;;;1.75;1.75;;;;;;;2.29;100.00;101130.91;4377262;32;20417;-67
2020/12/25 01:09:35;;;;;;;1.80;1.80;;;;;;;2.98;100.00;101240.59;4386289;32;20093;-65
2020/12/25 01:12:03;;;;;;;1.90;1.87;;;;;;;2.60;100.00;101190.44;4406664;32;20144;-67
2020/12/25 01:14:32;;;;;;;2.12;2.03;;;;;;;3.12;99.63;101266.56;4392882;32;20289;-66
2020/12/25 01:16:58;;;;;;;1.70;1.70;;;;;;;3.17;98.83;101274.03;4387262;32;20060;-66
2020/12/25 01:19:26;;;;;;;2.17;2.08;;;;;;;3.15;98.70;101273.34;4388038;32;20061;-67
2020/12/25 01:21:52;;;;;;;1.60;1.60;;;;;;;3.16;98.38;101277.69;4389989;32;20401;-68
2020/12/25 01:24:17;;;;;;;1.65;1.65;;;;;;;3.07;97.54;101276.75;4391749;32;20763;-67
2020/12/25 01:26:43;;;;;;;1.90;1.80;;;;;;;3.16;98.53;101282.97;4385618;32;20137;-67
2020/12/25 01:29:08;;;;;;;1.80;1.80;;;;;;;3.06;98.42;101276.88;4388045;32;20804;-66
2020/12/25 01:31:34;;;;;;;2.00;1.90;;;;;;;3.17;98.00;101292.53;4383155;32;20069;-66
2020/12/25 01:33:59;;;;;;;1.80;1.80;;;;;;;3.16;95.92;101301.47;4399202;32;20593;-66
2020/12/25 01:36:25;;;;;;;1.90;1.87;;;;;;;3.16;96.72;101309.41;4385982;32;20100;-66
2020/12/25 01:38:50;;;;;;;1.77;1.77;;;;;;;3.14;96.42;101306.91;4414039;32;20090;-66
2020/12/25 01:41:16;;;;;;;2.10;2.00;;;;;;;3.12;96.36;101311.50;4409873;32;20065;-66
2020/12/25 01:43:41;;;;;;;1.70;1.70;;;;;;;3.08;97.99;101312.75;4387945;32;20079;-66
2020/12/25 01:46:07;;;;;;;1.83;1.83;;;;;;;3.04;97.06;101326.41;4390373;32;20196;-67
2020/12/25 01:48:32;;;;;;;1.70;1.70;;;;;;;2.99;97.61;101325.03;4388683;32;20100;-66
2020/12/25 01:50:58;;;;;;;2.05;1.95;;;;;;;2.97;97.39;101328.78;4403681;32;20068;-67
2020/12/25 01:53:24;;;;;;;1.60;1.60;;;;;;;2.93;97.50;101337.97;4383937;32;20096;-67
2020/12/25 01:55:49;;;;;;;2.10;2.00;;;;;;;2.91;97.62;101348.69;4400433;32;20085;-67
2020/12/25 01:58:15;;;;;;;1.70;1.70;;;;;;;2.88;97.91;101334.91;4384955;32;20097;-67
2020/12/25 02:00:40;;;;;;;1.70;1.70;;;;;;;2.86;97.37;101342.97;4387111;32;20559;-67
2020/12/25 02:03:06;;;;;;;1.80;1.80;;;;;;;1.67;96.99;101171.69;4382862;32;20068;-67
2020/12/25 02:05:31;;;;;;;2.78;2.67;;;;;;;2.65;96.70;101321.22;4384296;32;20664;-67
2020/12/25 02:07:57;;;;;;;2.50;2.40;;;;;;;2.77;97.00;101347.31;4401941;32;20069;-67
2020/12/25 02:10:22;;;;;;;1.80;1.80;;;;;;;2.74;96.89;101339.69;4388046;32;20083;-66
2020/12/25 02:12:48;;;;;;;1.77;1.77;;;;;;;2.72;97.29;101344.25;4384432;32;20574;-66
2020/12/25 02:15:13;;;;;;;1.80;1.80;;;;;;;2.72;97.75;101348.72;4403444;32;20064;-66
2020/12/25 02:17:46;;;;;;;1.60;1.60;;;;;;;2.72;98.84;101354.00;4379188;32;20080;-66
2020/12/25 02:20:11;;;;;;;2.00;1.90;;;;;;;2.73;99.26;101353.88;4411334;32;20726;-66
2020/12/25 02:22:37;;;;;;;1.80;1.80;;;;;;;2.72;99.74;101364.56;4384382;32;20129;-66
2020/12/25 02:25:02;;;;;;;1.75;1.75;;;;;;;2.78;99.47;101369.31;4387226;32;20577;-67
2020/12/25 02:27:27;;;;;;;1.92;1.85;;;;;;;2.79;99.04;101365.66;4386362;32;20484;-67
2020/12/25 02:29:53;;;;;;;1.70;1.70;;;;;;;2.85;97.46;101373.03;4390463;32;20214;-67
2020/12/25 02:32:18;;;;;;;3.35;3.25;;;;;;;2.74;97.85;101357.34;4399968;32;20453;-67
2020/12/25 02:34:44;;;;;;;1.80;1.80;;;;;;;2.85;97.95;101386.25;4383684;32;20061;-66
2020/12/25 02:37:09;;;;;;;1.50;1.50;;;;;;;2.78;96.34;101378.06;4386891;32;20087;-66
2020/12/25 02:39:35;;;;;;;2.20;2.10;;;;;;;2.87;95.89;101388.75;4385221;32;20500;-67
2020/12/25 02:42:00;;;;;;;1.60;1.60;;;;;;;2.81;94.83;101379.56;4386681;32;20139;-66
2020/12/25 02:44:26;;;;;;;1.73;1.73;;;;;;;2.81;94.40;101380.41;4384618;32;20081;-66
2020/12/25 02:46:51;;;;;;;1.67;1.67;;;;;;;2.79;94.76;101384.16;4382163;32;20081;-67
2020/12/25 02:49:17;;;;;;;1.70;1.70;;;;;;;2.79;93.99;101390.31;4395527;32;20614;-66
2020/12/25 02:51:42;;;;;;;1.70;1.70;;;;;;;2.77;93.89;101391.41;4389624;32;20459;-66
2020/12/25 02:54:08;;;;;;;2.15;2.05;;;;;;;2.77;93.49;101404.59;4383850;32;20056;-66
2020/12/25 02:56:33;;;;;;;1.80;1.80;;;;;;;2.77;92.95;101409.87;4387762;32;20179;-66
2020/12/25 02:58:58;;;;;;;1.60;1.60;;;;;;;2.73;94.68;101409.34;4411982;32;20064;-66
2020/12/25 03:01:24;;;;;;;1.70;1.70;;;;;;;2.74;94.18;101412.81;4381891;32;20080;-66
2020/12/25 03:03:49;;;;;;;1.70;1.70;;;;;;;2.76;94.18;101413.50;4381717;32;20631;-65
2020/12/25 03:06:15;;;;;;;1.60;1.60;;;;;;;2.77;94.28;101413.34;4394858;32;20085;-65
2020/12/25 03:08:40;;;;;;;1.58;1.58;;;;;;;2.73;94.42;101419.09;4389467;32;20335;-66
2020/12/25 03:11:05;;;;;;;1.60;1.60;;;;;;;2.75;93.64;101422.41;4379173;32;20054;-66
2020/12/25 03:13:31;;;;;;;1.62;1.62;;;;;;;2.74;93.86;101426.00;4402420;32;20142;-65
2020/12/25 03:15:56;;;;;;;1.73;1.73;;;;;;;2.67;93.98;101430.19;4395500;32;20064;-66
2020/12/25 03:18:22;;;;;;;1.60;1.60;;;;;;;2.20;94.08;101365.66;4386441;32;20095;-66
2020/12/25 03:20:47;;;;;;;1.60;1.60;;;;;;;2.61;95.19;101442.97;4392286;32;20085;-66
2020/12/25 03:23:13;;;;;;;1.70;1.70;;;;;;;2.65;93.80;101442.72;4391863;32;20065;-66
2020/12/25 03:25:38;;;;;;;2.05;1.95;;;;;;;2.65;94.94;101448.00;4396288;32;21057;-66
2020/12/25 03:28:04;;;;;;;1.80;1.80;;;;;;;1.83;94.30;101308.28;4385453;32;20442;-66
2020/12/25 03:30:29;;;;;;;1.60;1.60;;;;;;;2.39;94.91;101404.47;4412182;32;20311;-66
2020/12/25 03:32:55;;;;;;;1.77;1.77;;;;;;;2.67;95.40;101446.03;4385839;32;20705;-67
2020/12/25 03:35:20;;;;;;;1.40;1.40;;;;;;;2.67;94.70;101461.88;4382644;32;20195;-67
2020/12/25 03:37:46;;;;;;;1.70;1.70;;;;;;;2.68;95.09;101448.53;4394961;32;20661;-66
2020/12/25 03:40:11;;;;;;;1.60;1.60;;;;;;;2.68;95.13;101447.72;4382648;32;20705;-65
2020/12/25 03:42:36;;;;;;;1.58;1.58;;;;;;;2.66;95.51;101447.00;4382697;32;20134;-66
2020/12/25 03:45:03;;;;;;;1.70;1.70;;;;;;;2.65;94.88;101462.03;4384683;32;20076;-66
2020/12/25 03:47:28;;;;;;;1.75;1.75;;;;;;;2.62;95.05;101460.50;4400843;32;20164;-66
2020/12/25 03:49:54;;;;;;;1.70;1.70;;;;;;;2.55;94.94;101458.53;4411944;32;20080;-66
2020/12/25 03:52:23;;;;;;;1.70;1.70;;;;;;;2.47;95.71;101456.59;4392890;32;20089;-66
2020/12/25 03:54:48;;;;;;;2.20;2.10;;;;;;;1.58;96.22;101327.22;4400168;32;20069;-64
2020/12/25 03:57:14;;;;;;;1.83;1.83;;;;;;;2.19;97.17;101456.41;4390042;32;20081;-67
2020/12/25 03:59:39;;;;;;;1.62;1.62;;;;;;;2.17;97.30;101468.03;4404904;32;20095;-67
2020/12/25 04:02:04;;;;;;;2.05;1.95;;;;;;;2.09;98.29;101471.37;4379585;32;20158;-66
2020/12/25 04:04:30;;;;;;;2.17;2.10;;;;;;;1.88;98.84;101461.72;4379296;32;20074;-66
2020/12/25 04:06:55;;;;;;;1.60;1.60;;;;;;;1.94;99.61;101476.16;4389847;32;20075;-66
2020/12/25 04:09:21;;;;;;;1.60;1.60;;;;;;;1.81;99.92;101479.03;4383619;32;20080;-66
2020/12/25 04:11:48;;;;;;;1.60;1.60;;;;;;;1.74;99.68;101475.25;4403781;32;20287;-66
2020/12/25 04:14:14;;;;;;;2.20;2.10;;;;;;;1.60;100.00;101473.78;4382255;32;20069;-67
2020/12/25 04:16:40;;;;;;;1.70;1.70;;;;;;;1.53;100.00;101474.44;4388833;32;20073;-66
2020/12/25 04:19:05;;;;;;;1.80;1.80;;;;;;;1.47;100.00;101478.44;4393126;32;20669;-66
2020/12/25 04:21:30;;;;;;;1.70;1.70;;;;;;;1.49;100.00;101490.53;4390027;32;20744;-65
2020/12/25 04:23:56;;;;;;;1.60;1.60;;;;;;;1.49;100.00;101492.34;4401713;32;20068;-67
2020/12/25 04:26:21;;;;;;;1.70;1.70;;;;;;;1.45;100.00;101501.44;4386433;32;20073;-66
2020/12/25 04:28:47;;;;;;;1.70;1.70;;;;;;;1.42;100.00;101499.09;4397791;32;20115;-66
2020/12/25 04:31:12;;;;;;;1.50;1.50;;;;;;;1.40;100.00;101507.13;4402125;32;20160;-67
2020/12/25 04:33:37;;;;;;;2.10;2.00;;;;;;;1.34;100.00;101504.16;4390656;32;20506;-66
2020/12/25 04:36:03;;;;;;;1.70;1.70;;;;;;;1.37;100.00;101522.38;4388259;32;20439;-66
2020/12/25 04:38:29;;;;;;;1.50;1.50;;;;;;;1.28;100.00;101526.59;4416015;32;20065;-66
2020/12/25 04:40:54;;;;;;;1.70;1.70;;;;;;;1.26;100.00;101528.50;4409081;32;20142;-66
2020/12/25 04:43:20;;;;;;;1.70;1.70;;;;;;;1.19;100.00;101532.63;4396816;32;20126;-66
2020/12/25 04:45:45;;;;;;;1.73;1.73;;;;;;;1.10;100.00;101534.22;4381729;32;20083;-66
2020/12/25 04:48:11;;;;;;;1.50;1.50;;;;;;;1.11;100.00;101547.25;4413233;32;20093;-67
2020/12/25 04:50:37;;;;;;;1.50;1.50;;;;;;;1.03;100.00;101549.69;4387795;32;20178;-66
2020/12/25 04:53:03;;;;;;;1.60;1.60;;;;;;;0.99;100.00;101545.63;4399051;32;20084;-65
2020/12/25 04:55:28;;;;;;;1.70;1.70;;;;;;;0.98;100.00;101546.59;4397582;32;20073;-65
2020/12/25 04:57:54;;;;;;;1.60;1.60;;;;;;;0.84;100.00;101534.53;4411630;32;20073;-65
2020/12/25 05:00:23;;;;;;;1.67;1.67;;;;;;;0.90;100.00;101559.56;4387041;32;20807;-66
2020/12/25 05:02:49;;;;;;;1.50;1.50;;;;;;;0.87;100.00;101562.44;4399483;32;20073;-65
2020/12/25 05:05:18;;;;;;;1.80;1.80;;;;;;;0.74;100.00;101547.62;4406819;32;20211;-66
2020/12/25 05:07:44;;;;;;;1.80;1.80;;;;;;;0.72;100.00;101546.06;4389196;32;20073;-65
2020/12/25 05:10:10;;;;;;;2.10;2.00;;;;;;;0.78;100.00;101563.16;4389261;32;20591;-66
2020/12/25 05:12:36;;;;;;;1.70;1.70;;;;;;;0.74;100.00;101562.56;4387140;32;20073;-66
2020/12/25 05:15:08;;;;;;;1.60;1.60;;;;;;;0.69;100.00;101562.97;4385584;32;20103;-66
2020/12/25 05:17:33;;;;;;;1.70;1.70;;;;;;;0.69;100.00;101568.22;4393471;32;20065;-65
2020/12/25 05:19:59;;;;;;;1.60;1.60;;;;;;;0.45;100.00;101539.44;4387503;32;20111;-67
2020/12/25 05:22:24;;;;;;;1.60;1.60;;;;;;;0.61;100.00;101570.62;4381982;32;20521;-66
2020/12/25 05:24:50;;;;;;;2.00;1.95;;;;;;;0.53;100.00;101562.50;4409745;32;20106;-68
2020/12/25 05:27:15;;;;;;;1.77;1.77;;;;;;;0.54;100.00;101574.72;4414481;32;20088;-66
2020/12/25 05:29:41;;;;;;;1.62;1.62;;;;;;;0.43;100.00;101572.06;4386086;32;20072;-65
2020/12/25 05:32:06;;;;;;;1.70;1.70;;;;;;;0.46;100.00;101577.09;4410096;32;20116;-66
2020/12/25 05:34:35;;;;;;;1.60;1.60;;;;;;;0.47;100.00;101589.31;4391799;32;20077;-66
2020/12/25 05:37:02;;;;;;;2.00;1.92;;;;;;;0.42;100.00;101588.84;4393050;32;20083;-67
2020/12/25 05:39:28;;;;;;;1.60;1.60;;;;;;;0.40;100.00;101583.69;4386544;32;20076;-66
2020/12/25 05:42:01;;;;;;;2.60;2.40;;;;;;;0.36;100.00;101585.75;4411421;32;20223;-66
2020/12/25 05:44:28;;;;;;;1.60;1.60;;;;;;;0.34;100.00;101589.44;4394578;32;20069;-67
2020/12/25 05:46:57;;;;;;;1.70;1.70;;;;;;;0.33;100.00;101591.22;4411618;32;20131;-66
2020/12/25 05:49:25;;;;;;;1.50;1.50;;;;;;;0.33;100.00;101590.41;4395146;32;20155;-67
2020/12/25 05:51:51;;;;;;;1.60;1.60;;;;;;;0.28;100.00;101592.56;4399007;32;20091;-66
2020/12/25 05:54:27;;;;;;;1.50;1.50;;;;;;;0.24;100.00;101584.03;4397771;32;20069;-66
2020/12/25 05:56:56;;;;;;;1.50;1.50;;;;;;;0.28;100.00;101601.28;4384943;32;20238;-66
2020/12/25 05:59:25;;;;;;;1.52;1.52;;;;;;;0.27;100.00;101606.66;4394214;32;20662;-66
2020/12/25 06:02:02;;;;;;;1.50;1.50;;;;;;;0.26;100.00;101608.47;4397097;32;20104;-66
2020/12/25 06:04:28;;;;;;;2.28;2.17;;;;;;;0.26;100.00;101613.72;4420096;32;20160;-67
2020/12/25 06:06:54;;;;;;;1.50;1.50;;;;;;;0.27;100.00;101614.56;4386705;32;20883;-66
2020/12/25 06:09:21;;;;;;;1.60;1.60;;;;;;;0.27;100.00;101612.75;4395911;32;20064;-66
2020/12/25 06:11:50;;;;;;;1.50;1.50;;;;;;;0.26;100.00;101624.25;4385436;32;20069;-66
2020/12/25 06:14:16;;;;;;;1.50;1.50;;;;;;;0.30;100.00;101635.38;4421161;32;20946;-66
2020/12/25 06:17:06;;;;;;;1.70;1.70;;;;;;;0.39;100.00;101633.81;4400055;32;20989;-66
2020/12/25 06:19:37;;;;;;;1.55;1.55;;;;;;;0.44;100.00;101631.66;4416013;32;20068;-67
2020/12/25 06:22:11;;;;;;;1.40;1.40;;;;;;;0.47;100.00;101636.69;4424206;32;20942;-66
2020/12/25 06:24:37;;;;;;;1.40;1.40;;;;;;;0.48;100.00;101627.81;4388344;32;20071;-65
2020/12/25 06:27:04;;;;;;;1.50;1.50;;;;;;;0.49;100.00;101632.16;4399094;32;20075;-66
2020/12/25 06:29:29;;;;;;;1.92;1.87;;;;;;;0.49;100.00;101637.41;4384375;32;20098;-66
2020/12/25 06:31:56;;;;;;;1.50;1.50;;;;;;;0.42;100.00;101629.16;4387345;32;20686;-66
2020/12/25 06:34:21;;;;;;;1.50;1.50;;;;;;;0.47;100.00;101636.69;4393399;32;20690;-66
2020/12/25 06:36:47;;;;;;;1.60;1.60;;;;;;;0.43;100.00;101629.97;4405068;32;20230;-67
2020/12/25 06:39:14;;;;;;;1.45;1.45;;;;;;;0.39;100.00;101633.81;4396708;32;20602;-68
2020/12/25 06:41:39;;;;;;;1.60;1.60;;;;;;;0.18;100.00;101610.84;4383530;32;20085;-67
2020/12/25 06:44:07;;;;;;;1.70;1.70;;;;;;;0.31;100.00;101648.41;4397659;32;20135;-66
2020/12/25 06:46:35;;;;;;;1.50;1.50;;;;;;;0.33;100.00;101650.94;4382517;32;20077;-66
2020/12/25 06:49:05;;;;;;;1.60;1.60;;;;;;;0.35;100.00;101660.37;4381913;32;20060;-66
2020/12/25 06:51:31;;;;;;;1.60;1.60;;;;;;;0.35;100.00;101663.00;4381998;32;20979;-66
2020/12/25 06:53:56;;;;;;;1.60;1.60;;;;;;;0.24;100.00;101641.09;4383194;32;20081;-66
2020/12/25 06:56:22;;;;;;;1.50;1.50;;;;;;;0.40;100.00;101670.56;4382210;32;20061;-66
2020/12/25 06:58:49;;;;;;;1.58;1.58;;;;;;;0.43;100.00;101677.34;4408915;32;20077;-69
2020/12/25 07:01:15;;;;;;;1.60;1.60;;;;;;;0.44;100.00;101668.53;4395487;32;20091;-67
2020/12/25 07:03:41;;;;;;;1.80;1.80;;;;;;;0.44;100.00;101671.16;4385573;32;20110;-67
2020/12/25 07:06:11;;;;;;;2.30;2.20;;;;;;;0.51;100.00;101670.53;4380979;32;21516;-68
2020/12/25 07:08:50;;;;;;;1.50;1.50;;;;;;;0.57;100.00;101674.53;4385921;32;20932;-66
2020/12/25 07:11:16;;;;;;;1.60;1.60;;;;;;;0.59;100.00;101682.28;4394586;32;22295;-66
2020/12/25 07:13:42;;;;;;;1.60;1.60;;;;;;;0.61;100.00;101693.53;4400409;32;20168;-66
2020/12/25 07:16:07;;;;;;;1.83;1.77;;;;;;;0.62;100.00;101682.91;4394060;32;20061;-67
2020/12/25 07:18:33;;;;;;;1.65;1.62;;;;;;;0.65;100.00;101685.25;4384518;32;20134;-66
2020/12/25 07:20:59;;;;;;;1.42;1.42;;;;;;;0.62;100.00;101677.63;4410573;32;20085;-67
2020/12/25 07:23:24;;;;;;;1.50;1.50;;;;;;;0.65;100.00;101698.44;4385264;32;20092;-67
2020/12/25 07:25:50;;;;;;;1.60;1.60;;;;;;;0.68;100.00;101708.72;4382090;32;20078;-67
2020/12/25 07:28:15;;;;;;;1.60;1.60;;;;;;;0.71;100.00;101703.22;4405281;32;20108;-66
2020/12/25 07:30:41;;;;;;;1.55;1.55;;;;;;;0.73;100.00;101703.94;4410381;32;20894;-65
2020/12/25 07:33:06;;;;;;;1.70;1.70;;;;;;;0.72;100.00;101710.16;4383888;32;20652;-66
2020/12/25 07:35:32;;;;;;;1.50;1.50;;;;;;;0.70;100.00;101700.72;4417467;32;20099;-66
2020/12/25 07:37:57;;;;;;;1.60;1.60;;;;;;;0.78;100.00;101708.88;4384770;32;20075;-66
2020/12/25 07:40:23;;;;;;;1.50;1.50;;;;;;;0.85;100.00;101711.87;4384459;32;20203;-66
2020/12/25 07:42:50;;;;;;;1.83;1.83;;;;;;;0.90;100.00;101717.59;4385718;32;20081;-66
2020/12/25 07:45:19;;;;;;;1.70;1.70;;;;;;;0.92;100.00;101723.59;4382973;32;20979;-66
2020/12/25 07:47:46;;;;;;;1.80;1.80;;;;;;;0.94;100.00;101724.31;4389788;32;20222;-66
2020/12/25 07:50:11;;;;;;;1.60;1.60;;;;;;;0.98;100.00;101733.62;4389460;32;20081;-68
2020/12/25 07:52:37;;;;;;;1.70;1.70;;;;;;;1.00;100.00;101734.38;4400443;32;20171;-66
2020/12/25 07:55:02;;;;;;;1.60;1.60;;;;;;;1.04;100.00;101735.78;4394929;32;20830;-67
2020/12/25 07:57:27;;;;;;;1.60;1.60;;;;;;;1.06;100.00;101736.50;4389277;32;20179;-68
2020/12/25 07:59:54;;;;;;;1.50;1.50;;;;;;;1.03;100.00;101741.19;4384235;32;20064;-67
2020/12/25 08:02:19;;;;;;;1.50;1.50;;;;;;;1.05;100.00;101750.66;4386761;32;20112;-68
2020/12/25 08:04:45;;;;;;;1.60;1.60;;;;;;;1.08;100.00;101741.66;4375906;32;20378;-67
2020/12/25 08:07:10;;;;;;;1.60;1.60;;;;;;;1.09;100.00;101748.63;4393283;32;20240;-67
2020/12/25 08:09:37;;;;;;;1.50;1.50;;;;;;;1.10;100.00;101752.91;4397066;32;20102;-67
2020/12/25 08:12:03;;;;;;;1.73;1.73;;;;;;;1.11;100.00;101749.31;4381312;32;20073;-68
2020/12/25 08:14:28;;;;;;;2.22;2.12;;;;;;;1.06;100.00;101743.56;4380400;32;20069;-66
2020/12/25 08:16:54;;;;;;;1.67;1.67;;;;;;;1.15;100.00;101750.75;4387439;32;20203;-68
2020/12/25 08:19:19;;;;;;;1.70;1.70;;;;;;;1.17;100.00;101753.25;4390772;32;20671;-67
2020/12/25 08:21:45;;;;;;;1.65;1.65;;;;;;;1.20;100.00;101751.22;4375377;32;20162;-66
2020/12/25 08:24:10;;;;;;;1.60;1.60;;;;;;;1.15;100.00;101747.28;4388728;32;20086;-68
2020/12/25 08:26:40;;;;;;;1.80;1.80;;;;;;;1.11;100.00;101750.16;4376288;32;20150;-69
2020/12/25 08:29:05;;;;;;;1.70;1.70;;;;;;;1.05;100.00;101749.78;4389597;32;20187;-67
2020/12/25 08:31:37;;;;;;;1.70;1.70;;;;;;;1.01;100.00;101751.00;4406789;32;20873;-67
2020/12/25 08:34:03;;;;;;;1.60;1.60;;;;;;;0.98;100.00;101745.97;4420771;32;20142;-67
2020/12/25 08:36:29;;;;;;;1.70;1.70;;;;;;;0.90;100.00;101749.22;4405609;32;20076;-67
2020/12/25 08:38:54;;;;;;;1.50;1.50;;;;;;;0.88;100.00;101756.38;4408218;32;20069;-68
2020/12/25 08:41:25;;;;;;;1.70;1.70;;;;;;;0.85;100.00;101759.28;4378985;32;20081;-67
2020/12/25 08:43:50;;;;;;;1.60;1.60;;;;;;;0.81;100.00;101753.41;4409933;32;20099;-68
2020/12/25 08:46:20;;;;;;;1.80;1.80;;;;;;;0.78;100.00;101744.88;4394595;32;20077;-67
2020/12/25 08:48:50;;;;;;;1.70;1.70;;;;;;;0.80;100.00;101748.25;4388147;32;20187;-69
2020/12/25 08:51:16;;;;;;;2.30;2.20;;;;;;;0.83;100.00;101754.12;4407208;32;20087;-68
2020/12/25 08:53:52;;;;;;;1.52;1.52;;;;;;;0.80;100.00;101745.63;4382950;32;20962;-66
2020/12/25 08:56:25;;;;;;;2.12;2.03;;;;;;;0.83;100.00;101753.25;4398797;32;20142;-66
2020/12/25 08:59:09;;;;;;;1.60;1.60;;;;;;;0.76;100.00;101747.66;4384014;32;20698;-68
2020/12/25 09:01:37;;;;;;;2.40;2.30;;;;;;;0.72;100.00;101735.66;4379535;32;20137;-68
2020/12/25 09:04:03;;;;;;;1.70;1.70;;;;;;;0.86;100.00;101758.28;4383031;32;20595;-68
2020/12/25 09:06:29;;;;;;;1.50;1.50;;;;;;;0.85;100.00;101760.09;4388621;32;20224;-68
2020/12/25 09:08:54;;;;;;;1.60;1.60;;;;;;;0.82;100.00;101756.88;4381335;32;20111;-66
2020/12/25 09:11:20;;;;;;;2.20;2.10;;;;;;;0.85;100.00;101761.91;4385635;32;20100;-70
2020/12/25 09:13:46;;;;;;;1.70;1.70;;;;;;;0.61;100.00;101718.06;4404073;32;20147;-68
2020/12/25 09:16:11;;;;;;;1.73;1.73;;;;;;;0.94;100.00;101766.44;4408791;32;20088;-69
2020/12/25 09:18:37;;;;;;;2.17;2.08;;;;;;;1.00;100.00;101776.53;4385325;32;20093;-69
2020/12/25 09:21:04;;;;;;;1.60;1.60;;;;;;;1.08;100.00;101774.09;4389328;32;20131;-68
2020/12/25 09:23:29;;;;;;;1.62;1.62;;;;;;;1.15;100.00;101776.28;4387952;32;20154;-70
2020/12/25 09:25:54;;;;;;;1.52;1.52;;;;;;;1.23;100.00;101784.41;4408614;32;20084;-68
2020/12/25 09:28:20;;;;;;;2.12;2.03;;;;;;;1.33;100.00;101772.19;4404663;32;20084;-68
2020/12/25 09:30:45;;;;;;;1.70;1.70;;;;;;;1.32;100.00;101778.41;4404662;32;20760;-68
2020/12/25 09:33:11;;;;;;;1.50;1.50;;;;;;;1.40;100.00;101778.66;4409046;32;20188;-68
2020/12/25 09:35:36;;;;;;;1.50;1.50;;;;;;;1.39;100.00;101774.31;4386216;32;20141;-67
2020/12/25 09:38:02;;;;;;;2.10;2.00;;;;;;;1.53;100.00;101785.56;4385051;32;20133;-69
2020/12/25 09:40:27;;;;;;;1.70;1.70;;;;;;;1.63;100.00;101797.06;4379921;32;20567;-67
2020/12/25 09:42:53;;;;;;;1.60;1.60;;;;;;;1.65;100.00;101776.69;4384904;32;20069;-69
2020/12/25 09:45:18;;;;;;;1.70;1.70;;;;;;;1.93;100.00;101793.72;4405564;32;20603;-67
2020/12/25 09:47:44;;;;;;;1.60;1.60;;;;;;;2.09;100.00;101795.97;4395541;32;20072;-67
2020/12/25 09:50:09;;;;;;;1.80;1.80;;;;;;;2.23;100.00;101797.47;4406873;32;20228;-67
2020/12/25 09:52:35;;;;;;;1.60;1.60;;;;;;;2.23;100.00;101781.63;4391139;32;20211;-67
2020/12/25 09:55:00;;;;;;;1.80;1.70;;;;;;;2.55;100.00;101801.88;4391967;32;20069;-67
2020/12/25 09:57:26;;;;;;;1.80;1.80;;;;;;;2.77;100.00;101806.19;4390494;32;20169;-67
2020/12/25 09:59:54;;;;;;;1.70;1.70;;;;;;;3.00;98.10;101793.63;4395531;32;20076;-67
2020/12/25 10:02:19;;;;;;;1.70;1.70;;;;;;;3.07;96.83;101797.44;4387144;32;20072;-67
2020/12/25 10:04:44;;;;;;;1.62;1.62;;;;;;;3.00;95.95;101797.13;4394241;32;20069;-65
2020/12/25 10:07:10;;;;;;;1.70;1.70;;;;;;;3.00;95.79;101793.63;4387986;32;20432;-65
2020/12/25 10:09:35;;;;;;;1.60;1.60;;;;;;;2.99;96.04;101791.97;4392404;32;20073;-65
2020/12/25 10:12:01;;;;;;;1.80;1.80;;;;;;;3.00;97.11;101801.56;4411000;32;20851;-66
2020/12/25 10:14:28;;;;;;;1.80;1.80;;;;;;;2.30;96.95;101669.28;4385003;32;20147;-65
2020/12/25 10:16:53;;;;;;;2.10;2.00;;;;;;;3.10;97.59;101789.22;4394452;32;20206;-66
2020/12/25 10:19:18;;;;;;;1.80;1.80;;;;;;;3.06;97.67;101787.84;4390345;32;20286;-66
2020/12/25 10:21:44;;;;;;;1.70;1.70;;;;;;;3.13;97.34;101793.44;4392687;32;20616;-66
2020/12/25 10:24:09;;;;;;;1.70;1.70;;;;;;;3.13;97.64;101791.62;4390692;32;20163;-66
2020/12/25 10:26:35;;;;;;;1.70;1.70;;;;;;;3.23;96.54;101793.47;4393156;32;20607;-65
2020/12/25 10:29:00;;;;;;;1.70;1.70;;;;;;;3.34;96.49;101794.19;4387923;32;20064;-66
2020/12/25 10:31:25;;;;;;;1.85;1.80;;;;;;;3.30;94.80;101792.78;4384830;32;20088;-66
2020/12/25 10:33:51;;;;;;;1.70;1.70;;;;;;;3.36;95.12;101786.97;4394217;32;20069;-66
2020/12/25 10:36:16;;;;;;;1.70;1.70;;;;;;;3.40;94.84;101795.47;4393270;32;20385;-65
2020/12/25 10:38:42;;;;;;;1.80;1.80;;;;;;;3.42;95.10;101790.06;4388118;32;20077;-65
2020/12/25 10:41:09;;;;;;;1.60;1.60;;;;;;;3.38;93.40;101800.91;4391008;32;20551;-65
2020/12/25 10:43:34;;;;;;;1.60;1.60;;;;;;;3.33;93.63;101800.47;4388765;32;20555;-64
2020/12/25 10:46:00;;;;;;;1.73;1.73;;;;;;;3.39;93.80;101809.66;4394311;32;20092;-66
2020/12/25 10:48:25;;;;;;;1.60;1.60;;;;;;;3.37;93.87;101793.94;4381251;32;20172;-66
2020/12/25 10:50:50;;;;;;;1.70;1.70;;;;;;;3.33;93.70;101802.28;4410304;32;20080;-66
2020/12/25 10:53:16;;;;;;;2.53;2.42;;;;;;;3.20;93.61;101802.50;4371914;32;20091;-66
2020/12/25 10:55:41;;;;;;;1.70;1.70;;;;;;;3.10;93.86;101798.97;4370798;32;20687;-65
2020/12/25 10:58:07;;;;;;;1.70;1.70;;;;;;;3.02;94.36;101804.94;4381210;32;20238;-65
2020/12/25 11:00:32;;;;;;;1.65;1.65;;;;;;;3.13;94.60;101806.66;4379478;32;20318;-64
2020/12/25 11:02:57;;;;;;;1.70;1.70;;;;;;;3.33;93.69;101803.09;4382691;32;20574;-66
2020/12/25 11:05:26;;;;;;;1.60;1.60;;;;;;;3.45;92.96;101795.91;4384079;32;20072;-72
2020/12/25 11:07:54;;;;;;;2.03;1.92;;;;;;;3.49;92.06;101797.31;4371016;32;20085;-65
2020/12/25 11:10:19;;;;;;;1.70;1.70;;;;;;;3.71;92.72;101788.31;4384682;32;20080;-64
2020/12/25 11:12:45;;;;;;;1.73;1.73;;;;;;;4.04;91.04;101796.84;4383599;32;20068;-66
2020/12/25 11:15:10;;;;;;;1.95;1.90;;;;;;;4.37;89.07;101801.88;4367190;32;20084;-65
2020/12/25 11:17:35;;;;;;;1.87;1.87;;;;;;;4.62;87.04;101805.72;4381967;32;20618;-65
2020/12/25 11:20:01;;;;;;;1.85;1.80;;;;;;;4.63;87.06;101792.34;4364064;32;20069;-65
2020/12/25 11:22:26;;;;;;;1.70;1.70;;;;;;;4.68;86.03;101795.38;4370247;32;20777;-64
2020/12/25 11:24:52;;;;;;;2.12;2.03;;;;;;;4.58;85.95;101788.44;4381742;32;20457;-65